This is the latest recevied weather packets stored in our database for station/object N7TUG-8. If no packets are shown the sender has not sent any weather packets the latest 10 day(s).
| Time | Temp. | Humidity | Pressure | Rain* | Wind** | Luminosity | Snow |
|---|---|---|---|---|---|---|---|
| 1778089586 | 12.78° C | 88% | 1019.5 hPa | 0 mm | 3.13 m/s, 142° | - | - |
| 1778089287 | 13.33° C | 88% | 1019.7 hPa | 0 mm | 3.13 m/s, 128° | - | - |
| 1778088641 | 13.33° C | 88% | 1019.7 hPa | 0 mm | 1.79 m/s, 156° | - | - |
| 1778088502 | 12.78° C | 90% | 1019.7 hPa | 0 mm | 2.68 m/s, 142° | - | - |
| 1778087831 | 12.22° C | 91% | 1019.8 hPa | 0 mm | 3.13 m/s, 122° | - | - |
| 1778086931 | 12.78° C | 89% | 1019.9 hPa | 0 mm | 2.68 m/s, 147° | - | - |
| 1778086211 | 12.78° C | 89% | 1019.6 hPa | 0 mm | 2.68 m/s, 138° | - | - |
| 1778086101 | 12.78° C | 89% | 1019.6 hPa | 0 mm | 2.68 m/s, 138° | - | - |
| 1778085281 | 12.78° C | 89% | 1019.7 hPa | 0 mm | 1.79 m/s, 160° | - | - |
| 1778084647 | 12.78° C | 90% | 1019.5 hPa | 0 mm | 2.24 m/s, 142° | - | - |
| 1778084426 | 12.78° C | 90% | 1019.5 hPa | 0 mm | 2.24 m/s, 142° | - | - |
| 1778083471 | 12.78° C | 92% | 1019 hPa | 0 mm | 3.13 m/s, 137° | - | - |
| 1778083082 | 12.22° C | 93% | 1019.1 hPa | 0 mm | 3.13 m/s, 129° | - | - |
| 1778082581 | 12.22° C | 93% | 1019.1 hPa | 0 mm | 3.13 m/s, 132° | - | - |
| 1778081806 | 12.22° C | 93% | 1019.3 hPa | 0 mm | 2.24 m/s, 139° | - | - |
| 1778081591 | 12.22° C | 93% | 1019.4 hPa | 0 mm | 2.68 m/s, 150° | - | - |
| 1778080856 | 12.22° C | 94% | 1019.5 hPa | 0 mm | 2.24 m/s, 145° | - | - |
| 1778080722 | 12.22° C | 93% | 1019.5 hPa | 0 mm | 1.79 m/s, 152° | - | - |
| 1778080002 | 12.22° C | 94% | 1019.4 hPa | 0 mm | 1.79 m/s, 164° | - | - |
| 1778079961 | 12.22° C | 94% | 1019.4 hPa | 0 mm | 1.79 m/s, 164° | - | - |
| 1778079202 | 11.67° C | 95% | 1019 hPa | 0 mm | 2.68 m/s, 148° | - | - |
| 1778079166 | 11.67° C | 95% | 1019 hPa | 0 mm | 2.68 m/s, 148° | - | - |
| 1778078477 | 11.67° C | 94% | 1019.2 hPa | 0 mm | 2.68 m/s, 133° | - | - |
| 1778078286 | 12.22° C | 93% | 1019.2 hPa | 0 mm | 2.24 m/s, 134° | - | - |
| 1778077622 | 12.22° C | 92% | 1019.3 hPa | 0 mm | 1.34 m/s, 142° | - | - |
* Rain latest hour (hover to see other rain measurements)
** Current wind speed in m/s (hover to see current wind gust speed)